createdAt,value
2018-02-24T00:00:56.374Z,10.50
2018-02-24T00:01:56.327Z,11.40
2018-02-24T00:02:56.297Z,9.50
2018-02-24T00:03:56.260Z,12.60
2018-02-24T00:04:56.237Z,12.70
2018-02-24T00:05:56.212Z,12.70
2018-02-24T00:06:56.173Z,11.60
2018-02-24T00:07:56.151Z,11.50
2018-02-24T00:08:56.102Z,8.90
2018-02-24T00:09:56.054Z,14.20
2018-02-24T00:10:56.053Z,11.10
2018-02-24T00:11:55.985Z,11.20
2018-02-24T00:12:55.970Z,12.20
2018-02-24T00:13:55.927Z,11.50
2018-02-24T00:14:55.889Z,12.90
2018-02-24T00:15:55.877Z,12.30
2018-02-24T00:16:55.817Z,12.90
2018-02-24T00:17:55.801Z,12.20
2018-02-24T00:18:55.756Z,13.80
2018-02-24T00:19:55.714Z,11.30
2018-02-24T00:20:55.704Z,12.60
2018-02-24T00:21:55.692Z,11.70
2018-02-24T00:22:55.615Z,8.50
2018-02-24T00:23:55.589Z,12.80
2018-02-24T00:24:55.550Z,12.20
2018-02-24T00:25:55.518Z,11.80
2018-02-24T00:26:55.489Z,13.80
2018-02-24T00:27:55.488Z,9.20
2018-02-24T00:28:55.430Z,12.50
2018-02-24T00:29:55.386Z,12.00
2018-02-24T00:30:55.357Z,15.00
2018-02-24T00:31:55.309Z,12.90
2018-02-24T00:32:55.273Z,9.90
2018-02-24T00:33:55.242Z,11.40
2018-02-24T00:34:55.204Z,10.70
2018-02-24T00:35:55.195Z,11.40
2018-02-24T00:36:55.153Z,13.50
2018-02-24T00:37:55.138Z,14.70
2018-02-24T00:38:55.075Z,11.70
2018-02-24T00:39:55.052Z,12.20
2018-02-24T00:40:55.076Z,11.70
2018-02-24T00:41:54.968Z,15.00
2018-02-24T00:42:54.942Z,12.80
2018-02-24T00:43:54.896Z,11.90
2018-02-24T00:44:54.872Z,11.60
2018-02-24T00:45:54.845Z,13.50
2018-02-24T00:46:54.797Z,10.80
2018-02-24T00:47:54.774Z,13.50
2018-02-24T00:48:54.744Z,11.60
2018-02-24T00:49:54.690Z,10.60
2018-02-24T00:50:54.659Z,11.20
2018-02-24T00:51:54.627Z,11.20
2018-02-24T00:52:54.615Z,13.30
2018-02-24T00:53:54.567Z,16.90
2018-02-24T00:54:54.525Z,10.90
2018-02-24T00:55:54.512Z,9.90
2018-02-24T00:56:54.458Z,10.00
2018-02-24T00:57:54.435Z,12.70
2018-02-24T00:58:54.391Z,13.70
2018-02-24T00:59:54.358Z,14.70
2018-02-24T01:00:54.314Z,11.30
2018-02-24T01:01:54.297Z,12.00
2018-02-24T01:02:54.265Z,13.10
2018-02-24T01:03:54.229Z,10.90
2018-02-24T01:04:54.194Z,9.90
2018-02-24T01:05:54.168Z,15.00
2018-02-24T01:06:54.132Z,12.50
2018-02-24T01:07:54.092Z,12.80
2018-02-24T01:08:54.043Z,12.60
2018-02-24T01:09:54.021Z,12.80
2018-02-24T01:10:53.989Z,12.90
2018-02-24T01:11:53.944Z,13.40
2018-02-24T01:12:53.929Z,13.50
2018-02-24T01:13:53.881Z,14.70
2018-02-24T01:14:53.857Z,11.70
2018-02-24T01:15:53.813Z,13.20
2018-02-24T01:16:53.768Z,12.70
2018-02-24T01:17:53.768Z,12.40
2018-02-24T01:18:54.285Z,9.90
2018-02-24T01:19:53.687Z,9.00
2018-02-24T01:20:53.665Z,12.60
2018-02-24T01:21:53.622Z,11.80
2018-02-24T01:22:53.611Z,10.80
2018-02-24T01:23:53.539Z,14.60
2018-02-24T01:24:53.522Z,9.70
2018-02-24T01:25:53.470Z,11.60
2018-02-24T01:26:53.438Z,11.50
2018-02-24T01:27:53.426Z,11.50
2018-02-24T01:28:53.362Z,12.50
2018-02-24T01:29:53.336Z,12.50
2018-02-24T01:30:53.300Z,12.70
2018-02-24T01:31:53.263Z,10.80
2018-02-24T01:32:53.236Z,11.10
2018-02-24T01:33:53.193Z,12.00
2018-02-24T01:34:53.162Z,13.60
2018-02-24T01:35:53.133Z,12.90
2018-02-24T01:36:53.093Z,12.70
2018-02-24T01:37:53.057Z,11.60
2018-02-24T01:38:53.021Z,11.90
2018-02-24T01:39:52.999Z,14.00
2018-02-24T01:40:52.954Z,11.40
2018-02-24T01:41:52.922Z,10.10
2018-02-24T01:42:52.879Z,12.10
2018-02-24T01:43:52.861Z,11.10
2018-02-24T01:44:52.837Z,16.10
2018-02-24T01:45:52.778Z,10.70
2018-02-24T01:46:52.756Z,11.20
2018-02-24T01:47:52.725Z,11.90
2018-02-24T01:48:52.711Z,13.10
2018-02-24T01:49:52.673Z,12.40
2018-02-24T01:50:52.618Z,12.10
2018-02-24T01:51:52.596Z,15.80
2018-02-24T01:52:52.553Z,13.40
2018-02-24T01:53:52.510Z,12.90
2018-02-24T01:54:52.466Z,12.80
2018-02-24T01:55:52.449Z,10.60
2018-02-24T01:56:52.407Z,11.10
2018-02-24T01:57:52.375Z,10.30
2018-02-24T01:58:52.342Z,13.40
2018-02-24T01:59:52.305Z,12.00
2018-02-24T02:00:52.258Z,9.20
2018-02-24T02:01:52.248Z,10.80
2018-02-24T02:02:52.189Z,11.80
2018-02-24T02:03:52.167Z,9.50
2018-02-24T02:04:52.129Z,13.50
2018-02-24T02:05:52.092Z,14.30
2018-02-24T02:06:52.065Z,13.10
2018-02-24T02:07:52.019Z,11.80
2018-02-24T02:08:51.992Z,13.90
2018-02-24T02:09:51.966Z,12.80
2018-02-24T02:10:51.916Z,12.80
2018-02-24T02:11:51.886Z,13.50
2018-02-24T02:12:51.869Z,12.10
2018-02-24T02:13:51.841Z,13.60
2018-02-24T02:14:51.776Z,12.60
2018-02-24T02:15:51.752Z,12.70
2018-02-24T02:16:51.728Z,13.40
2018-02-24T02:17:51.685Z,14.50
2018-02-24T02:18:51.645Z,11.80
2018-02-24T02:19:51.611Z,13.20
2018-02-24T02:20:51.615Z,9.60
2018-02-24T02:21:51.552Z,11.00
2018-02-24T02:22:51.504Z,13.50
2018-02-24T02:23:51.488Z,11.10
2018-02-24T02:24:51.449Z,11.50
2018-02-24T02:25:51.399Z,11.60
2018-02-24T02:26:51.385Z,14.40
2018-02-24T02:27:51.335Z,11.90
2018-02-24T02:28:51.295Z,9.10
2018-02-24T02:29:51.287Z,10.80
2018-02-24T02:30:51.246Z,8.30
2018-02-24T02:31:51.205Z,11.20
2018-02-24T02:32:51.169Z,9.40
2018-02-24T02:33:51.151Z,14.10
2018-02-24T02:34:51.096Z,12.40
2018-02-24T02:35:51.084Z,9.50
2018-02-24T02:36:51.021Z,12.80
2018-02-24T02:37:51.009Z,12.20
2018-02-24T02:38:50.949Z,15.50
2018-02-24T02:39:50.930Z,11.60
2018-02-24T02:40:50.890Z,12.90
2018-02-24T02:41:50.859Z,14.70
2018-02-24T02:42:50.810Z,11.20
2018-02-24T02:43:50.799Z,11.50
2018-02-24T02:44:50.751Z,12.20
2018-02-24T02:45:50.714Z,13.40
2018-02-24T02:46:50.689Z,12.00
2018-02-24T02:47:50.644Z,11.80
2018-02-24T02:48:50.663Z,9.70
2018-02-24T02:49:50.576Z,13.10
2018-02-24T02:50:50.555Z,12.10
2018-02-24T02:51:50.535Z,10.00
2018-02-24T02:52:50.474Z,10.70
2018-02-24T02:53:50.457Z,10.30
2018-02-24T02:54:50.439Z,11.90
2018-02-24T02:55:50.369Z,11.30
2018-02-24T02:56:50.374Z,12.10
2018-02-24T02:57:50.318Z,11.00
2018-02-24T02:58:50.274Z,11.10
2018-02-24T02:59:50.252Z,13.00
2018-02-24T03:00:50.214Z,17.10
2018-02-24T03:01:50.178Z,11.40
2018-02-24T03:02:50.142Z,10.00
2018-02-24T03:03:50.095Z,9.30
2018-02-24T03:04:50.095Z,11.70
2018-02-24T03:05:50.029Z,11.50
2018-02-24T03:06:50.029Z,12.70
2018-02-24T03:07:49.963Z,11.90
2018-02-24T03:08:49.923Z,11.30
2018-02-24T03:09:49.912Z,11.00
2018-02-24T03:10:49.864Z,10.70
2018-02-24T03:11:49.822Z,14.10
2018-02-24T03:12:49.786Z,14.70
2018-02-24T03:13:49.782Z,12.00
2018-02-24T03:14:49.730Z,10.70
2018-02-24T03:15:49.701Z,12.20
2018-02-24T03:16:49.674Z,11.60
2018-02-24T03:17:49.624Z,13.00
2018-02-24T03:18:49.588Z,14.20
2018-02-24T03:19:49.563Z,11.50
2018-02-24T03:20:49.526Z,12.40
2018-02-24T03:21:49.483Z,11.80
2018-02-24T03:22:49.454Z,12.00
2018-02-24T03:23:49.427Z,13.00
2018-02-24T03:24:49.410Z,10.80
2018-02-24T03:25:49.360Z,12.50
2018-02-24T03:26:49.304Z,12.90
2018-02-24T03:27:49.300Z,12.40
2018-02-24T03:28:49.785Z,15.70
2018-02-24T03:29:49.206Z,12.30
2018-02-24T03:30:49.183Z,10.20
2018-02-24T03:31:49.150Z,11.00
2018-02-24T03:32:49.110Z,8.50
2018-02-24T03:33:49.099Z,11.20
2018-02-24T03:34:49.061Z,11.70
2018-02-24T03:35:48.990Z,11.90
2018-02-24T03:36:48.985Z,11.70
2018-02-24T03:37:48.938Z,12.30
2018-02-24T03:38:48.903Z,13.90
2018-02-24T03:39:48.859Z,11.30
2018-02-24T03:40:48.822Z,14.20
2018-02-24T03:41:48.814Z,13.00
2018-02-24T03:42:48.757Z,11.30
2018-02-24T03:43:48.722Z,12.50
2018-02-24T03:44:48.696Z,13.20
2018-02-24T03:45:48.650Z,11.00
2018-02-24T03:46:48.617Z,12.40
2018-02-24T03:47:48.606Z,14.50
2018-02-24T03:48:48.568Z,15.80
2018-02-24T03:49:48.526Z,16.80
2018-02-24T03:50:48.494Z,10.00
2018-02-24T03:51:48.473Z,12.80
2018-02-24T03:52:48.444Z,12.00
2018-02-24T03:53:48.382Z,11.60
2018-02-24T03:54:48.346Z,12.10
2018-02-24T03:55:48.314Z,13.80
2018-02-24T03:56:48.276Z,14.20
2018-02-24T03:57:48.245Z,17.20
2018-02-24T03:58:48.223Z,25.10
2018-02-24T03:59:48.181Z,49.80
2018-02-24T04:00:48.140Z,49.20
2018-02-24T04:01:48.106Z,25.00
2018-02-24T04:02:48.093Z,13.30
2018-02-24T04:03:48.053Z,35.60
2018-02-24T04:04:48.002Z,23.40
2018-02-24T04:05:47.977Z,21.20
2018-02-24T04:06:47.935Z,23.70
2018-02-24T04:07:47.899Z,22.80
2018-02-24T04:08:47.868Z,26.80
2018-02-24T04:09:47.834Z,32.60
2018-02-24T04:10:47.861Z,19.80
2018-02-24T04:11:47.802Z,21.70
2018-02-24T04:12:47.721Z,24.30
2018-02-24T04:13:47.695Z,11.70
2018-02-24T04:14:47.674Z,38.20
2018-02-24T04:15:47.615Z,16.00
2018-02-24T04:16:47.613Z,13.20
2018-02-24T04:17:47.571Z,13.10
2018-02-24T04:18:47.559Z,13.50
2018-02-24T04:19:47.488Z,14.30
2018-02-24T04:20:47.443Z,14.50
2018-02-24T04:21:47.432Z,13.50
2018-02-24T04:22:47.374Z,17.60
2018-02-24T04:23:47.334Z,13.10
2018-02-24T04:24:47.331Z,12.70
2018-02-24T04:25:47.268Z,14.80
2018-02-24T04:26:47.233Z,18.90
2018-02-24T04:27:47.223Z,18.20
2018-02-24T04:28:47.178Z,24.50
2018-02-24T04:29:47.161Z,15.80
2018-02-24T04:30:47.112Z,16.70
2018-02-24T04:31:47.069Z,15.40
2018-02-24T04:32:47.025Z,18.40
2018-02-24T04:33:47.009Z,14.00
2018-02-24T04:34:46.966Z,15.80
2018-02-24T04:35:46.924Z,11.50
2018-02-24T04:36:46.894Z,16.20
2018-02-24T04:37:46.857Z,18.50
2018-02-24T04:38:46.832Z,18.50
2018-02-24T04:39:46.793Z,13.50
2018-02-24T04:40:46.749Z,12.40
2018-02-24T04:41:46.721Z,14.30
2018-02-24T04:42:46.678Z,16.50
2018-02-24T04:43:46.644Z,13.70
2018-02-24T04:44:46.614Z,13.00
2018-02-24T04:45:46.590Z,11.80
2018-02-24T04:46:46.549Z,17.20
2018-02-24T04:47:46.522Z,13.90
2018-02-24T04:48:46.492Z,16.90
2018-02-24T04:49:46.441Z,14.90
2018-02-24T04:50:46.417Z,13.90
2018-02-24T04:51:46.405Z,10.80
2018-02-24T04:52:46.339Z,11.80
2018-02-24T04:53:46.308Z,11.40
2018-02-24T04:54:46.280Z,12.20
2018-02-24T04:55:46.243Z,12.40
2018-02-24T04:56:46.205Z,14.70
2018-02-24T04:57:46.172Z,16.90
2018-02-24T04:58:46.152Z,15.10
2018-02-24T04:59:46.115Z,14.50
2018-02-24T05:00:46.071Z,12.10
2018-02-24T05:01:46.040Z,17.30
2018-02-24T05:02:45.997Z,12.30
2018-02-24T05:03:45.956Z,15.50
2018-02-24T05:04:45.931Z,13.20
2018-02-24T05:05:45.892Z,12.70
2018-02-24T05:06:45.867Z,13.70
2018-02-24T05:07:45.819Z,14.00
2018-02-24T05:08:45.804Z,10.70
2018-02-24T05:09:45.756Z,14.30
2018-02-24T05:10:45.719Z,13.00
2018-02-24T05:11:45.683Z,15.70
2018-02-24T05:12:45.652Z,12.20
2018-02-24T05:13:45.628Z,13.70
2018-02-24T05:14:45.579Z,13.60
2018-02-24T05:15:45.550Z,14.60
2018-02-24T05:16:45.552Z,12.20
2018-02-24T05:17:45.485Z,12.20
2018-02-24T05:18:45.440Z,12.40
2018-02-24T05:19:45.411Z,14.40
2018-02-24T05:20:45.383Z,13.20
2018-02-24T05:21:45.340Z,12.00
2018-02-24T05:22:45.318Z,16.60
2018-02-24T05:23:45.277Z,15.30
2018-02-24T05:24:45.242Z,13.80
2018-02-24T05:25:45.200Z,15.80
2018-02-24T05:26:45.178Z,11.50
2018-02-24T05:27:45.177Z,10.10
2018-02-24T05:28:45.091Z,12.10
2018-02-24T05:29:45.059Z,12.10
2018-02-24T05:30:45.048Z,15.40
2018-02-24T05:31:45.008Z,16.00
2018-02-24T05:32:44.953Z,12.20
2018-02-24T05:33:44.919Z,14.60
2018-02-24T05:34:44.890Z,15.30
2018-02-24T05:35:44.858Z,17.30
2018-02-24T05:36:44.824Z,14.10
2018-02-24T05:37:44.782Z,13.10
2018-02-24T05:38:44.846Z,14.90
2018-02-24T05:39:45.401Z,13.60
2018-02-24T05:40:44.704Z,14.30
2018-02-24T05:41:44.668Z,14.00
2018-02-24T05:42:44.628Z,13.10
2018-02-24T05:43:44.580Z,12.90
2018-02-24T05:44:44.561Z,13.40
2018-02-24T05:45:44.512Z,12.50
2018-02-24T05:46:44.481Z,15.00
2018-02-24T05:47:44.436Z,15.30
2018-02-24T05:48:44.410Z,12.70
2018-02-24T05:49:44.373Z,13.50
2018-02-24T05:50:44.340Z,11.90
2018-02-24T05:51:44.302Z,14.40
2018-02-24T05:52:44.288Z,20.70
2018-02-24T05:53:44.230Z,14.40
2018-02-24T05:54:44.195Z,12.70
2018-02-24T05:55:44.175Z,12.60
2018-02-24T05:56:44.148Z,13.90
2018-02-24T05:57:44.098Z,14.70
2018-02-24T05:58:44.056Z,15.50
2018-02-24T05:59:44.046Z,16.10
2018-02-24T06:00:44.000Z,11.10
2018-02-24T06:01:43.970Z,15.00
2018-02-24T06:02:43.937Z,14.20
2018-02-24T06:03:43.940Z,18.10
2018-02-24T06:04:43.859Z,13.70
2018-02-24T06:05:43.834Z,15.20
2018-02-24T06:06:43.784Z,18.50
2018-02-24T06:07:43.745Z,13.50
2018-02-24T06:08:43.717Z,14.70
2018-02-24T06:09:43.672Z,15.00
2018-02-24T06:10:43.639Z,9.90
2018-02-24T06:11:43.620Z,13.20
2018-02-24T06:12:43.575Z,14.30
2018-02-24T06:13:43.543Z,14.40
2018-02-24T06:14:43.506Z,13.80
2018-02-24T06:15:43.467Z,15.40
2018-02-24T06:16:43.446Z,13.80
2018-02-24T06:17:43.436Z,13.50
2018-02-24T06:18:43.377Z,13.60
2018-02-24T06:19:43.337Z,17.10
2018-02-24T06:20:43.308Z,15.10
2018-02-24T06:21:43.267Z,14.70
2018-02-24T06:22:43.228Z,12.30
2018-02-24T06:23:43.199Z,12.30
2018-02-24T06:24:43.157Z,12.80
2018-02-24T06:25:43.130Z,13.90
2018-02-24T06:26:43.084Z,13.00
2018-02-24T06:27:43.059Z,13.40
2018-02-24T06:28:43.025Z,14.00
2018-02-24T06:29:43.022Z,13.00
2018-02-24T06:30:42.962Z,12.60
2018-02-24T06:31:42.915Z,14.50
2018-02-24T06:32:42.893Z,19.30
2018-02-24T06:33:42.847Z,12.90
2018-02-24T06:34:42.809Z,14.40
2018-02-24T06:35:42.801Z,12.90
2018-02-24T06:36:42.744Z,19.50
2018-02-24T06:37:42.715Z,15.20
2018-02-24T06:38:42.685Z,15.20
2018-02-24T06:39:42.650Z,12.60
2018-02-24T06:40:42.624Z,12.20
2018-02-24T06:41:42.573Z,11.80
2018-02-24T06:42:42.537Z,14.50
2018-02-24T06:43:42.497Z,14.30
2018-02-24T06:44:42.486Z,13.10
2018-02-24T06:45:42.434Z,13.90
2018-02-24T06:46:42.421Z,13.40
2018-02-24T06:47:42.366Z,17.20
2018-02-24T06:48:42.352Z,12.20
2018-02-24T06:49:42.291Z,15.70
2018-02-24T06:50:42.276Z,16.10
2018-02-24T06:51:42.226Z,17.40
2018-02-24T06:52:42.199Z,17.60
2018-02-24T06:53:42.153Z,12.90
2018-02-24T06:54:42.154Z,12.80
2018-02-24T06:55:42.092Z,15.60
2018-02-24T06:56:42.046Z,17.30
2018-02-24T06:57:42.010Z,10.80
2018-02-24T06:58:41.997Z,14.40
2018-02-24T06:59:41.952Z,16.70
2018-02-24T07:00:41.944Z,15.00
2018-02-24T07:01:41.877Z,12.10
2018-02-24T07:02:41.850Z,18.00
2018-02-24T07:03:41.812Z,12.80
2018-02-24T07:04:41.770Z,15.20
2018-02-24T07:05:41.737Z,11.80
2018-02-24T07:06:41.721Z,14.40
2018-02-24T07:07:41.695Z,12.50
2018-02-24T07:08:41.638Z,12.40
2018-02-24T07:09:41.625Z,13.40
2018-02-24T07:10:41.576Z,10.10
2018-02-24T07:11:41.622Z,15.00
2018-02-24T07:12:41.514Z,13.40
2018-02-24T07:13:41.515Z,12.10
2018-02-24T07:14:41.437Z,15.00
2018-02-24T07:15:41.395Z,13.50
2018-02-24T07:16:41.357Z,12.20
2018-02-24T07:17:41.320Z,17.40
2018-02-24T07:18:41.279Z,19.50
2018-02-24T07:19:41.255Z,12.10
2018-02-24T07:20:41.207Z,11.40
2018-02-24T07:21:41.193Z,13.20
2018-02-24T07:22:41.149Z,12.60
2018-02-24T07:23:41.139Z,14.70
2018-02-24T07:24:41.069Z,11.70
2018-02-24T07:25:41.043Z,13.50
2018-02-24T07:26:41.007Z,14.30
2018-02-24T07:27:40.972Z,15.80
2018-02-24T07:28:40.938Z,11.00
2018-02-24T07:29:40.914Z,17.50
2018-02-24T07:30:40.914Z,12.30
2018-02-24T07:31:40.839Z,12.50
2018-02-24T07:32:40.799Z,14.50
2018-02-24T07:33:40.772Z,10.40
2018-02-24T07:34:40.738Z,16.80
2018-02-24T07:35:40.699Z,10.90
2018-02-24T07:36:40.668Z,13.70
2018-02-24T07:37:40.652Z,14.60
2018-02-24T07:38:40.621Z,15.60
2018-02-24T07:39:40.569Z,15.50
2018-02-24T07:40:40.523Z,12.40
2018-02-24T07:41:40.527Z,14.50
2018-02-24T07:42:40.449Z,11.80
2018-02-24T07:43:40.432Z,10.90
2018-02-24T07:44:40.386Z,12.00
2018-02-24T07:45:40.388Z,9.10
2018-02-24T07:46:40.347Z,13.70
2018-02-24T07:47:40.289Z,13.60
2018-02-24T07:48:40.247Z,12.50
2018-02-24T07:49:40.229Z,10.10
2018-02-24T07:50:40.220Z,11.30
2018-02-24T07:51:40.163Z,14.90
2018-02-24T07:52:40.117Z,14.40
2018-02-24T07:53:40.079Z,11.30
2018-02-24T07:54:40.037Z,11.10
2018-02-24T07:55:40.005Z,11.90
2018-02-24T07:56:39.989Z,14.40
2018-02-24T07:57:39.935Z,13.10
2018-02-24T07:58:39.928Z,11.90
2018-02-24T07:59:39.875Z,12.20
2018-02-24T08:00:39.837Z,13.30
2018-02-24T08:01:39.797Z,12.20
2018-02-24T08:02:39.786Z,9.20
2018-02-24T08:03:39.727Z,14.20
2018-02-24T08:04:39.706Z,10.40
2018-02-24T08:05:39.677Z,10.00
2018-02-24T08:06:39.629Z,8.40
2018-02-24T08:07:39.614Z,10.40
2018-02-24T08:08:39.578Z,14.10
2018-02-24T08:09:39.527Z,11.80
2018-02-24T08:10:39.500Z,12.80
2018-02-24T08:11:39.449Z,11.80
2018-02-24T08:12:40.299Z,10.00
2018-02-24T08:13:39.399Z,9.20
2018-02-24T08:14:39.350Z,8.40
2018-02-24T08:15:39.318Z,8.30
2018-02-24T08:16:39.282Z,10.60
2018-02-24T08:17:39.271Z,11.20
2018-02-24T08:18:39.210Z,14.00
2018-02-24T08:19:39.193Z,10.50
2018-02-24T08:20:39.138Z,10.20
2018-02-24T08:21:39.125Z,9.70
2018-02-24T08:22:39.091Z,9.70
2018-02-24T08:23:39.039Z,12.00
2018-02-24T08:24:39.011Z,12.60
2018-02-24T08:25:38.970Z,67.30
2018-02-24T08:26:38.926Z,46.70
2018-02-24T08:27:38.915Z,16.00
2018-02-24T08:28:38.922Z,14.70
2018-02-24T08:29:38.835Z,16.50
2018-02-24T08:30:38.824Z,17.30
2018-02-24T08:31:38.760Z,9.40
2018-02-24T08:32:38.736Z,13.60
2018-02-24T08:33:38.692Z,35.10
2018-02-24T08:34:38.653Z,10.80
2018-02-24T08:35:38.625Z,34.80
2018-02-24T08:36:38.600Z,31.70
2018-02-24T08:37:38.570Z,73.40
2018-02-24T08:38:38.520Z,10.40
2018-02-24T08:39:38.488Z,18.20
2018-02-24T08:40:38.525Z,16.90
2018-02-24T08:41:39.312Z,13.80
2018-02-24T08:42:38.468Z,21.40
2018-02-24T08:43:38.354Z,20.00
2018-02-24T08:44:38.322Z,16.70
2018-02-24T08:45:38.285Z,20.00
2018-02-24T08:46:38.250Z,17.40
2018-02-24T08:47:38.256Z,12.60
2018-02-24T08:48:38.200Z,44.90
2018-02-24T08:49:38.144Z,10.10
2018-02-24T08:50:38.118Z,8.70
2018-02-24T08:51:38.079Z,10.00
2018-02-24T08:52:38.046Z,10.40
2018-02-24T08:53:38.003Z,17.10
2018-02-24T08:54:37.969Z,24.60
2018-02-24T08:55:37.929Z,14.90
2018-02-24T08:56:37.909Z,12.30
2018-02-24T08:57:37.870Z,10.70
2018-02-24T08:58:37.834Z,24.00
2018-02-24T08:59:37.797Z,7.40
2018-02-24T09:00:37.765Z,16.00
2018-02-24T09:01:37.739Z,12.50
2018-02-24T09:02:37.704Z,13.30
2018-02-24T09:03:37.669Z,13.30
2018-02-24T09:04:37.634Z,9.40
2018-02-24T09:05:37.600Z,8.70
2018-02-24T09:06:37.566Z,12.30
2018-02-24T09:07:37.527Z,13.90
2018-02-24T09:08:37.492Z,17.00
2018-02-24T09:09:37.486Z,11.10
2018-02-24T09:10:37.431Z,17.10
2018-02-24T09:11:37.399Z,17.10
2018-02-24T09:12:37.475Z,12.60
2018-02-24T09:13:37.324Z,9.00
2018-02-24T09:14:37.309Z,14.80
2018-02-24T09:15:37.264Z,17.00
2018-02-24T09:16:37.220Z,11.80
2018-02-24T09:17:37.185Z,18.10
2018-02-24T09:18:37.158Z,12.90
2018-02-24T09:19:37.121Z,14.10
2018-02-24T09:20:37.098Z,9.30
2018-02-24T09:21:37.070Z,14.70
2018-02-24T09:22:37.028Z,12.80
2018-02-24T09:23:37.011Z,8.40
2018-02-24T09:24:36.967Z,12.10
2018-02-24T09:25:36.947Z,11.30
2018-02-24T09:26:36.891Z,6.70
2018-02-24T09:27:36.843Z,12.90
2018-02-24T09:28:36.826Z,13.70
2018-02-24T09:29:36.794Z,8.50
2018-02-24T09:30:36.762Z,12.60
2018-02-24T09:31:36.729Z,11.30
2018-02-24T09:32:36.695Z,12.80
2018-02-24T09:33:36.672Z,11.10
2018-02-24T09:34:36.612Z,11.60
2018-02-24T09:35:36.582Z,7.00
2018-02-24T09:36:36.547Z,11.60
2018-02-24T09:37:36.524Z,7.80
2018-02-24T09:38:36.503Z,9.10
2018-02-24T09:39:36.438Z,8.60
2018-02-24T09:40:36.440Z,15.00
2018-02-24T09:41:36.373Z,8.30
2018-02-24T09:42:36.340Z,8.80
2018-02-24T09:43:36.319Z,9.50
2018-02-24T09:44:36.282Z,8.10
2018-02-24T09:45:36.256Z,11.00
2018-02-24T09:46:36.212Z,10.30
2018-02-24T09:47:36.190Z,7.40
2018-02-24T09:48:36.165Z,12.40
2018-02-24T09:49:36.116Z,8.70
2018-02-24T09:50:36.089Z,5.70
2018-02-24T09:51:36.063Z,7.70
2018-02-24T09:52:36.000Z,13.40
2018-02-24T09:53:35.975Z,13.90
2018-02-24T09:54:35.944Z,9.10
2018-02-24T09:55:35.922Z,12.20
2018-02-24T09:56:35.876Z,8.50
2018-02-24T09:57:35.848Z,10.70
2018-02-24T09:58:35.809Z,9.60
2018-02-24T09:59:35.773Z,6.70
2018-02-24T10:00:35.752Z,5.10
2018-02-24T10:01:35.722Z,7.70
2018-02-24T10:02:35.696Z,5.80
2018-02-24T10:03:35.657Z,6.20
2018-02-24T10:04:35.622Z,7.80
2018-02-24T10:05:35.601Z,9.30
2018-02-24T10:06:35.534Z,6.60
2018-02-24T10:07:35.513Z,7.00
2018-02-24T10:08:35.476Z,7.40
2018-02-24T10:09:35.433Z,9.90
2018-02-24T10:10:35.403Z,8.40
2018-02-24T10:11:35.393Z,7.60
2018-02-24T10:12:35.339Z,8.00
2018-02-24T10:13:35.303Z,5.60
2018-02-24T10:14:35.281Z,8.40
2018-02-24T10:15:35.243Z,7.60
2018-02-24T10:16:35.223Z,8.00
2018-02-24T10:17:35.171Z,6.60
2018-02-24T10:18:35.145Z,6.20
2018-02-24T10:19:35.166Z,6.70
2018-02-24T10:20:35.079Z,7.80
2018-02-24T10:21:35.071Z,7.30
2018-02-24T10:22:35.016Z,6.40
2018-02-24T10:23:35.012Z,6.20
2018-02-24T10:24:34.940Z,5.50
2018-02-24T10:25:34.917Z,5.70
2018-02-24T10:26:34.877Z,7.20
2018-02-24T10:27:34.863Z,4.50
2018-02-24T10:28:34.811Z,5.40
2018-02-24T10:29:34.783Z,5.50
2018-02-24T10:30:34.737Z,4.60
2018-02-24T10:31:34.711Z,6.00
2018-02-24T10:32:34.684Z,5.30
2018-02-24T10:33:34.654Z,6.20
2018-02-24T10:34:34.623Z,7.20
2018-02-24T10:35:34.572Z,4.90
2018-02-24T10:36:34.544Z,4.70
2018-02-24T10:37:34.513Z,6.20
2018-02-24T10:38:34.483Z,6.20
2018-02-24T10:39:34.442Z,7.30
2018-02-24T10:40:34.427Z,6.30
2018-02-24T10:41:34.402Z,6.10
2018-02-24T10:42:34.346Z,4.00
2018-02-24T10:43:34.325Z,5.90
2018-02-24T10:44:34.287Z,5.30
2018-02-24T10:45:34.270Z,3.90
2018-02-24T10:46:34.215Z,4.90
2018-02-24T10:47:34.181Z,7.00
2018-02-24T10:48:34.187Z,6.80
2018-02-24T10:49:34.156Z,6.20
2018-02-24T10:50:34.089Z,5.50
2018-02-24T10:51:34.077Z,6.00
2018-02-24T10:52:34.021Z,4.90
2018-02-24T10:53:33.996Z,7.20
2018-02-24T10:54:33.970Z,7.20
2018-02-24T10:55:33.938Z,5.60
2018-02-24T10:56:33.902Z,5.60
2018-02-24T10:57:33.857Z,5.40
2018-02-24T10:58:33.823Z,6.50
2018-02-24T10:59:33.799Z,4.40
2018-02-24T11:00:33.768Z,4.70
2018-02-24T11:01:33.732Z,5.20
2018-02-24T11:02:33.696Z,3.60
2018-02-24T11:03:33.665Z,2.90
2018-02-24T11:04:33.625Z,9.50
2018-02-24T11:05:33.615Z,7.50
2018-02-24T11:06:33.566Z,3.10
2018-02-24T11:07:33.578Z,3.20
2018-02-24T11:08:33.503Z,3.80
2018-02-24T11:09:33.480Z,3.80
2018-02-24T11:10:33.455Z,3.80
2018-02-24T11:11:33.408Z,3.70
2018-02-24T11:12:33.375Z,3.60
2018-02-24T11:13:33.340Z,3.90
2018-02-24T11:14:33.311Z,2.80
2018-02-24T11:15:33.278Z,3.80
2018-02-24T11:16:33.242Z,4.40
2018-02-24T11:17:33.259Z,3.50
2018-02-24T11:18:33.181Z,4.00
2018-02-24T11:19:33.159Z,4.10
2018-02-24T11:20:33.125Z,4.40
2018-02-24T11:21:33.084Z,3.90
2018-02-24T11:22:33.078Z,4.60
2018-02-24T11:23:33.046Z,3.10
2018-02-24T11:24:33.005Z,5.80
2018-02-24T11:25:32.994Z,2.90
2018-02-24T11:26:32.918Z,4.20
2018-02-24T11:27:32.898Z,4.30
2018-02-24T11:28:32.866Z,3.60
2018-02-24T11:29:32.845Z,4.00
2018-02-24T11:30:32.829Z,3.00
2018-02-24T11:31:32.778Z,3.40
2018-02-24T11:32:32.745Z,6.10
2018-02-24T11:33:32.710Z,2.60
2018-02-24T11:34:32.686Z,4.40
2018-02-24T11:35:32.646Z,3.60
2018-02-24T11:36:32.615Z,5.20
2018-02-24T11:37:32.585Z,3.00
2018-02-24T11:38:32.551Z,2.60
2018-02-24T11:39:32.518Z,5.40
2018-02-24T11:40:32.492Z,3.80
2018-02-24T11:41:32.461Z,3.70
2018-02-24T11:42:32.434Z,3.70
2018-02-24T11:43:32.419Z,4.60
2018-02-24T11:44:32.366Z,3.80
2018-02-24T11:45:32.355Z,3.60
2018-02-24T11:46:32.356Z,3.00
2018-02-24T11:47:32.272Z,6.90
2018-02-24T11:48:32.245Z,2.90
2018-02-24T11:49:32.225Z,5.30
2018-02-24T11:50:32.184Z,2.50
2018-02-24T11:51:32.153Z,3.40
2018-02-24T11:52:32.118Z,2.90
2018-02-24T11:53:32.108Z,3.60
2018-02-24T11:54:32.046Z,3.00
2018-02-24T11:55:32.042Z,3.60
2018-02-24T11:56:31.993Z,2.90
2018-02-24T11:57:31.955Z,4.20
2018-02-24T11:58:31.961Z,3.30
2018-02-24T11:59:31.900Z,3.40
2018-02-24T12:00:31.937Z,2.70
2018-02-24T12:01:31.827Z,2.80
2018-02-24T12:02:31.824Z,4.10
2018-02-24T12:03:31.816Z,5.20
2018-02-24T12:04:31.743Z,3.40
2018-02-24T12:05:31.724Z,2.30
2018-02-24T12:06:31.691Z,3.70
2018-02-24T12:07:31.659Z,3.70
2018-02-24T12:08:31.617Z,2.70
2018-02-24T12:09:31.600Z,3.30
2018-02-24T12:10:31.617Z,2.50
2018-02-24T12:11:31.522Z,4.60
2018-02-24T12:12:31.483Z,3.90
2018-02-24T12:13:31.465Z,3.30
2018-02-24T12:14:31.422Z,4.60
2018-02-24T12:15:31.396Z,4.30
2018-02-24T12:16:31.372Z,3.40
2018-02-24T12:17:31.343Z,3.70
2018-02-24T12:18:31.300Z,3.90
2018-02-24T12:19:31.313Z,4.80
2018-02-24T12:20:31.244Z,3.10
2018-02-24T12:21:31.218Z,3.30
2018-02-24T12:22:31.183Z,5.50
2018-02-24T12:23:31.168Z,4.60
2018-02-24T12:24:31.110Z,3.70
2018-02-24T12:25:31.107Z,4.10
2018-02-24T12:26:31.049Z,3.40
2018-02-24T12:27:31.038Z,3.40
2018-02-24T12:28:31.028Z,5.20
2018-02-24T12:29:30.968Z,2.90
2018-02-24T12:30:30.935Z,3.50
2018-02-24T12:31:30.940Z,3.80
2018-02-24T12:32:30.861Z,3.90
2018-02-24T12:33:30.853Z,2.60
2018-02-24T12:34:30.795Z,3.30
2018-02-24T12:35:30.780Z,4.00
2018-02-24T12:36:30.740Z,5.10
2018-02-24T12:37:30.718Z,3.70
2018-02-24T12:38:30.693Z,2.90
2018-02-24T12:39:30.663Z,4.10
2018-02-24T12:40:30.622Z,3.20
2018-02-24T12:41:30.574Z,3.30
2018-02-24T12:42:30.611Z,4.30
2018-02-24T12:43:30.515Z,4.60
2018-02-24T12:44:30.503Z,3.80
2018-02-24T12:45:30.460Z,4.60
2018-02-24T12:46:30.418Z,3.50
2018-02-24T12:47:30.460Z,5.20
2018-02-24T12:48:30.376Z,4.40
2018-02-24T12:49:30.329Z,3.60
2018-02-24T12:50:30.300Z,6.70
2018-02-24T12:51:30.269Z,5.90
2018-02-24T12:52:30.259Z,4.70
2018-02-24T12:53:30.261Z,4.70
2018-02-24T12:54:30.183Z,6.20
2018-02-24T12:55:30.129Z,4.90
2018-02-24T12:56:30.128Z,5.20
2018-02-24T12:57:30.071Z,4.70
2018-02-24T12:58:30.052Z,3.10
2018-02-24T12:59:30.010Z,5.20
2018-02-24T13:00:29.986Z,6.70